Chanhassen, MN (55317)

3:48 AM CST on December 25, 2014 (GMT -0600)
Marsh Drive | Change Station
CLOSE
Current Station
Personal Weather Station
Location: Chanhassen, MN
Elevation: 915 ft
Nearby Weather Stations

Elev 915 ft 44.85 °N, 93.53 °W | Updated 1 second ago

Overcast
Overcast
30.3 °F
Feels Like 30 °F
N
0.0
Wind Variable Wind from WSW
Gusts 1.0 mph

Today
High -- | Low -- °F
--% Chance of Precip.
Yesterday
High -- | Low -- °F
Precip. -- in
7:50 AM 4:38 PM
Waxing Crescent, 15% visible
Pressure 29.64 in
Visibility 10.0 miles
Clouds Overcast 1000 ft
Windchill 30 °F
Dew Point 27 °F
Humidity 88%
Rainfall 0.00 in
Snow Depth Not available.
UV 0 out of 12
Pollen .10 out of 12
Air Quality Not available.
Flu Activity Not available.
METAR KFCM 250853Z AUTO 23007KT 10SM OVC010 M01/M03 A2961 RMK AO2 SLP037 T10111033 53011

More Conditions Fewer Conditions

Pressure 29.64 in
Visibility 10.0 miles
Clouds Overcast 1000 ft
Windchill 30 °F
Dew Point 27 °F
Humidity 88%
Rainfall 0.00 in
Snow Depth Not available.
UV 0 out of 12
Pollen .10 out of 12
Air Quality Not available.
Flu Activity Not available.
METAR KFCM 250853Z AUTO 23007KT 10SM OVC010 M01/M03 A2961 RMK AO2 SLP037 T10111033 53011

More Conditions Fewer Conditions

10-Day Weather Forecast

Almanac

Astronomy

Dec. 25, 2014 Rise Set
Actual Time
Civil Twilight
Nautical Twilight
Astronomical Twilight
Moon
Length of Visible Light
Length of Day
Tomorrow will be .
, % of the Moon is Illuminated

Today's Extremes

State Highs State Lows

Community

WunderPhotos

Upload Photos

1,780,251 photos uploaded!

WunderBlogs® & News

Nearby

Air Quality

  Air Quality AQ Index Pollutant
Not available.

Snow Depth

Station Depth Elevation

Earthquake Activity

City Distance Mag. Time & Date
Minimum magnitude displayed is 2.5.

Coastal Water Temperatures

Place Temperature

Nearby Weather Stations